createdAt,value
2023-01-10T00:04:19.627Z,2.13
2023-01-10T00:14:24.000Z,1.57
2023-01-10T00:24:27.151Z,1.87
2023-01-10T00:34:32.813Z,1.83
2023-01-10T00:44:36.068Z,1.70
2023-01-10T00:54:40.568Z,2.13
2023-01-10T01:04:44.103Z,1.40
2023-01-10T01:14:48.452Z,1.80
2023-01-10T01:24:51.633Z,1.53
2023-01-10T01:34:55.663Z,2.63
2023-01-10T01:45:32.196Z,1.70
2023-01-10T01:55:38.225Z,2.90
2023-01-10T02:05:43.554Z,2.50
2023-01-10T02:15:48.118Z,2.27
2023-01-10T02:26:16.270Z,2.73
2023-01-10T02:36:35.382Z,2.90
2023-01-10T02:46:41.109Z,2.25
2023-01-10T02:57:10.265Z,2.30
2023-01-10T03:07:19.691Z,3.17
2023-01-10T03:17:26.926Z,2.13
2023-01-10T03:27:40.081Z,2.57
2023-01-10T03:37:51.731Z,2.10
2023-01-10T03:47:56.407Z,2.03
2023-01-10T03:58:00.839Z,1.83
2023-01-10T04:08:03.775Z,2.07
2023-01-10T04:18:08.252Z,2.10
2023-01-10T04:28:11.376Z,2.40
2023-01-10T04:38:15.979Z,2.67
2023-01-10T04:48:19.598Z,2.47
2023-01-10T04:58:23.980Z,2.07
2023-01-10T05:08:26.976Z,2.33
2023-01-10T05:18:31.503Z,2.03
2023-01-10T05:28:34.666Z,2.50
2023-01-10T05:38:39.257Z,1.60
2023-01-10T05:48:42.633Z,1.87
2023-01-10T05:58:51.384Z,1.53
2023-01-10T06:08:59.102Z,1.97
2023-01-10T06:19:03.335Z,1.90
2023-01-10T06:29:06.358Z,1.97
2023-01-10T06:39:11.105Z,2.10
2023-01-10T06:49:14.134Z,2.40
2023-01-10T06:59:18.487Z,1.80
2023-01-10T07:09:21.557Z,2.00
2023-01-10T07:19:26.008Z,2.63
2023-01-10T07:39:52.575Z,2.53
2023-01-10T07:49:55.452Z,2.87
2023-01-10T08:00:00.944Z,2.60
2023-01-10T08:10:04.818Z,2.60
2023-01-10T08:20:12.950Z,1.70
2023-01-10T08:30:16.544Z,2.00
2023-01-10T08:52:10.992Z,1.90
2023-01-10T09:02:16.419Z,2.43
2023-01-10T09:12:38.233Z,2.07
2023-01-10T09:22:41.254Z,2.57
2023-01-10T09:32:45.815Z,2.10
2023-01-10T09:43:00.334Z,3.07
2023-01-10T09:53:12.178Z,1.90
2023-01-10T10:03:31.328Z,2.23
2023-01-10T10:13:50.005Z,1.80
2023-01-10T10:24:11.705Z,2.00
2023-01-10T10:34:24.816Z,2.00
2023-01-10T10:44:37.322Z,2.50
2023-01-10T10:54:41.903Z,2.07
2023-01-10T11:04:45.258Z,2.53
2023-01-10T11:14:51.500Z,1.20
2023-01-10T11:24:57.422Z,1.90
2023-01-10T11:35:04.913Z,1.83
2023-01-10T11:45:26.215Z,1.53
2023-01-10T11:55:33.139Z,2.07
2023-01-10T12:05:37.991Z,1.70
2023-01-10T12:15:43.016Z,1.80
2023-01-10T12:25:47.228Z,1.67
2023-01-10T12:35:54.708Z,1.47
2023-01-10T12:46:21.780Z,2.27
2023-01-10T12:56:32.433Z,2.23
2023-01-10T13:06:38.885Z,1.70
2023-01-10T13:16:50.163Z,1.33
2023-01-10T13:26:56.831Z,1.50
2023-01-10T13:37:04.058Z,1.73
2023-01-10T13:47:10.867Z,2.03
2023-01-10T13:57:47.463Z,2.40
2023-01-10T14:07:54.908Z,1.60
2023-01-10T14:18:01.143Z,2.47
2023-01-10T14:28:17.214Z,1.90
2023-01-10T14:38:25.788Z,1.67
2023-01-10T14:48:34.513Z,1.17
2023-01-10T14:58:37.528Z,1.67
2023-01-10T15:08:42.311Z,2.07
2023-01-10T15:18:47.368Z,2.40
2023-01-10T15:29:12.123Z,2.47
2023-01-10T15:39:22.169Z,1.90
2023-01-10T15:49:27.670Z,2.20
2023-01-10T15:59:33.860Z,1.70
2023-01-10T16:09:40.889Z,1.63
2023-01-10T16:19:44.472Z,2.07
2023-01-10T16:29:48.875Z,1.90
2023-01-10T16:39:54.674Z,1.27
2023-01-10T16:49:59.493Z,0.80
2023-01-10T17:00:02.434Z,1.20
2023-01-10T17:10:07.806Z,0.80
2023-01-10T17:20:14.405Z,0.97
2023-01-10T17:30:19.308Z,1.10
2023-01-10T17:40:22.442Z,1.03
2023-01-10T17:50:27.457Z,1.50
2023-01-10T18:00:32.155Z,0.87
2023-01-10T18:10:37.571Z,1.13
2023-01-10T18:20:42.081Z,0.90
2023-01-10T18:30:46.452Z,0.60
2023-01-10T18:40:52.406Z,0.97
2023-01-10T18:50:57.368Z,1.17
2023-01-10T19:01:06.392Z,1.10
2023-01-10T19:11:14.927Z,0.57
2023-01-10T19:21:19.030Z,0.47
2023-01-10T19:31:25.625Z,0.40
2023-01-10T19:41:30.324Z,0.40
2023-01-10T19:51:35.976Z,0.60
2023-01-10T20:01:39.795Z,0.30
2023-01-10T20:11:46.310Z,0.60
2023-01-10T20:21:49.717Z,0.40
2023-01-10T20:31:57.315Z,0.27
2023-01-10T20:42:36.721Z,0.60
2023-01-10T20:53:04.883Z,0.27
2023-01-10T21:03:08.257Z,0.17
2023-01-10T21:13:13.197Z,0.20
2023-01-10T21:23:17.797Z,0.30
2023-01-10T21:33:22.462Z,0.30
2023-01-10T21:43:25.877Z,0.20
2023-01-10T21:53:30.161Z,0.23
2023-01-10T22:03:34.109Z,0.20
2023-01-10T22:13:38.733Z,0.20
2023-01-10T22:23:43.226Z,0.20
2023-01-10T22:33:48.007Z,0.20
2023-01-10T22:43:53.635Z,0.10
2023-01-10T22:53:59.400Z,0.10
2023-01-10T23:04:02.663Z,0.20
2023-01-10T23:14:07.151Z,0.10
2023-01-10T23:24:10.097Z,0.10
2023-01-10T23:34:14.508Z,0.57
2023-01-10T23:44:17.338Z,0.10
2023-01-10T23:54:21.631Z,0.10
